createdAt,value
2023-03-23T15:58:14.130Z,46.10
2023-03-23T16:00:41.942Z,45.10
2023-03-23T16:03:12.171Z,46.30
2023-03-23T16:05:39.168Z,46.40
2023-03-23T16:08:06.089Z,45.50
2023-03-23T16:10:33.025Z,45.90
2023-03-23T16:13:00.340Z,46.60
2023-03-23T16:15:27.298Z,46.00
2023-03-23T16:17:54.225Z,46.50
2023-03-23T16:20:22.324Z,48.10
2023-03-23T16:22:49.983Z,47.90
2023-03-23T16:25:17.121Z,48.30
2023-03-23T16:27:44.225Z,48.70
2023-03-23T16:30:14.127Z,48.60
2023-03-23T16:35:08.116Z,49.30
2023-03-23T16:37:35.312Z,49.10
2023-03-23T16:40:02.574Z,50.30
2023-03-23T16:42:29.443Z,50.00
2023-03-23T16:44:58.445Z,51.70
2023-03-23T16:47:25.857Z,46.80
2023-03-23T16:49:54.962Z,49.10
2023-03-23T16:52:22.948Z,49.00
2023-03-23T16:54:50.929Z,50.00
2023-03-23T16:57:17.606Z,50.60
2023-03-23T16:59:44.327Z,50.20
2023-03-23T17:02:11.830Z,51.30
2023-03-23T17:04:42.563Z,50.20
2023-03-23T17:07:09.294Z,50.10
2023-03-23T17:09:35.912Z,50.70
2023-03-23T17:12:02.576Z,50.90
2023-03-23T17:14:29.591Z,50.30
2023-03-23T17:16:56.937Z,50.90
2023-03-23T17:19:23.928Z,50.90
2023-03-23T17:21:51.589Z,51.70
2023-03-23T17:24:18.840Z,51.70
2023-03-23T17:26:45.874Z,52.00
2023-03-23T17:29:12.608Z,52.30
2023-03-23T17:31:41.981Z,52.30
2023-03-23T17:34:08.612Z,52.80
2023-03-23T17:36:35.688Z,52.50
2023-03-23T17:39:02.724Z,53.50
2023-03-23T17:41:30.057Z,53.20
2023-03-23T17:43:56.698Z,53.30
2023-03-23T17:46:23.460Z,53.80
2023-03-23T17:48:50.374Z,53.80
2023-03-23T17:51:17.490Z,53.60
2023-03-23T17:53:44.152Z,53.60
2023-03-23T17:56:11.007Z,54.10
2023-03-23T17:58:37.732Z,54.90
2023-03-23T18:01:04.997Z,54.50
2023-03-23T18:03:31.959Z,55.60
2023-03-23T18:06:00.301Z,56.00
2023-03-23T18:08:28.070Z,56.00
2023-03-23T18:10:56.578Z,56.10
2023-03-23T18:13:26.082Z,56.10
2023-03-23T18:15:53.651Z,55.90
2023-03-23T18:18:20.628Z,56.00
2023-03-23T18:20:47.252Z,55.70
2023-03-23T18:23:14.210Z,55.60
2023-03-23T18:25:40.934Z,55.50
2023-03-23T18:28:07.748Z,55.90
2023-03-23T18:30:35.994Z,56.00
2023-03-23T18:33:02.950Z,55.70
2023-03-23T18:35:30.593Z,55.90
2023-03-23T18:37:57.380Z,56.10
2023-03-23T18:40:24.371Z,56.10
2023-03-23T18:42:52.510Z,56.60
2023-03-23T18:45:19.353Z,56.60
2023-03-23T18:47:46.266Z,56.80
2023-03-23T18:50:13.004Z,57.20
2023-03-23T18:52:43.392Z,57.70
2023-03-23T18:55:10.386Z,57.50
2023-03-23T18:57:39.293Z,57.10
2023-03-23T19:00:06.887Z,58.00
2023-03-23T19:02:36.214Z,60.80
2023-03-23T19:05:02.993Z,62.10
2023-03-23T19:07:30.393Z,61.80
2023-03-23T19:09:58.258Z,61.90
2023-03-23T19:12:25.158Z,61.70
2023-03-23T19:14:52.568Z,62.40
2023-03-23T19:17:19.984Z,61.70
2023-03-23T19:19:52.619Z,62.60
2023-03-23T19:22:20.944Z,61.80
2023-03-23T19:24:49.158Z,61.80
2023-03-23T19:27:16.755Z,61.40
2023-03-23T19:29:43.737Z,61.40
2023-03-23T19:32:10.726Z,61.90
2023-03-23T19:34:39.121Z,61.90
2023-03-23T19:37:10.849Z,61.60
2023-03-23T19:39:39.340Z,61.30
2023-03-23T19:42:07.207Z,61.90
2023-03-23T19:44:34.800Z,62.00
2023-03-23T19:47:01.620Z,62.50
2023-03-23T19:49:28.315Z,62.50
2023-03-23T19:52:08.409Z,63.00
2023-03-23T19:54:37.227Z,63.60
2023-03-23T19:57:04.130Z,63.20
2023-03-23T19:59:30.773Z,63.10
2023-03-23T20:01:57.544Z,65.60
2023-03-23T20:04:24.493Z,67.20
2023-03-23T20:06:52.776Z,66.70
2023-03-23T20:09:19.831Z,66.80
2023-03-23T20:11:46.670Z,68.00
2023-03-23T20:14:13.538Z,67.40
2023-03-23T20:16:40.237Z,67.60
2023-03-23T20:19:08.706Z,68.20
2023-03-23T20:21:35.614Z,67.70
2023-03-23T20:24:02.309Z,67.60
2023-03-23T20:26:33.445Z,67.10
2023-03-23T20:29:00.485Z,66.60
2023-03-23T20:31:36.635Z,68.20
2023-03-23T20:34:08.943Z,67.80
2023-03-23T20:36:40.643Z,68.20
2023-03-23T20:39:11.875Z,67.50
2023-03-23T20:41:40.558Z,67.30
2023-03-23T20:44:11.358Z,67.30
2023-03-23T20:46:39.519Z,67.70
2023-03-23T20:49:06.125Z,68.30
2023-03-23T20:51:33.803Z,68.00
2023-03-23T20:54:01.932Z,68.10
2023-03-23T20:56:31.014Z,68.30
2023-03-23T20:58:57.974Z,67.90
2023-03-23T21:01:26.289Z,67.90
2023-03-23T21:03:54.197Z,68.20
2023-03-23T21:06:21.204Z,69.10
2023-03-23T21:08:48.186Z,69.20
2023-03-23T21:11:17.844Z,69.40
2023-03-23T21:13:45.054Z,69.00
2023-03-23T21:16:11.869Z,70.10
2023-03-23T21:18:38.559Z,69.00
2023-03-23T21:21:09.252Z,69.10
2023-03-23T21:23:36.066Z,68.80
2023-03-23T21:26:04.293Z,68.70
2023-03-23T21:28:30.914Z,68.60
2023-03-23T21:31:01.314Z,68.50
2023-03-23T21:33:28.020Z,68.50
2023-03-23T21:35:57.184Z,68.10
2023-03-23T21:38:26.631Z,68.50
2023-03-23T21:40:54.112Z,68.70
2023-03-23T21:43:27.380Z,68.90
2023-03-23T21:45:56.983Z,68.60
2023-03-23T21:48:23.941Z,68.30
2023-03-23T21:50:50.703Z,68.50
2023-03-23T21:53:18.300Z,69.60
2023-03-23T21:55:51.134Z,69.70
2023-03-23T21:58:19.044Z,69.70
2023-03-23T22:00:47.372Z,70.80
2023-03-23T22:03:18.860Z,71.40
2023-03-23T22:05:46.074Z,70.90
2023-03-23T22:08:12.774Z,71.10
2023-03-23T22:10:40.709Z,70.80
2023-03-23T22:13:07.844Z,71.00
2023-03-23T22:15:34.610Z,70.60
2023-03-23T22:18:01.316Z,70.30
2023-03-23T22:20:29.592Z,71.10
2023-03-23T22:22:56.461Z,70.70
2023-03-23T22:25:24.086Z,71.00
2023-03-23T22:27:50.664Z,71.70
2023-03-23T22:30:17.745Z,70.80
2023-03-23T22:32:44.588Z,71.00
2023-03-23T22:35:12.602Z,71.60
2023-03-23T22:37:39.287Z,71.30
2023-03-23T22:40:10.163Z,70.80
2023-03-23T22:42:37.021Z,70.70
2023-03-23T22:45:03.904Z,70.20
2023-03-23T22:47:31.483Z,70.00
2023-03-23T22:49:58.213Z,69.90
2023-03-23T22:52:24.886Z,69.70
2023-03-23T22:54:53.769Z,69.60
2023-03-23T22:57:20.374Z,69.40
2023-03-23T22:59:47.916Z,69.50
2023-03-23T23:02:14.785Z,69.20
2023-03-23T23:04:41.680Z,69.30
2023-03-23T23:07:14.044Z,69.00
2023-03-23T23:09:41.814Z,70.20
2023-03-23T23:12:09.507Z,69.80
2023-03-23T23:14:36.345Z,69.80
2023-03-23T23:17:03.833Z,70.10
2023-03-23T23:19:30.844Z,71.50
2023-03-23T23:22:06.458Z,70.60
2023-03-23T23:24:39.767Z,70.50
2023-03-23T23:27:06.440Z,70.90
2023-03-23T23:29:35.586Z,70.40
2023-03-23T23:32:03.024Z,70.30
2023-03-23T23:34:31.172Z,70.40
2023-03-23T23:36:59.523Z,70.30
2023-03-23T23:39:27.868Z,70.60
2023-03-23T23:41:55.516Z,70.10
2023-03-23T23:44:22.779Z,70.50
2023-03-23T23:46:49.625Z,70.10
2023-03-23T23:49:16.505Z,71.60
2023-03-23T23:51:45.818Z,71.10
2023-03-23T23:54:14.597Z,70.70
2023-03-23T23:56:41.709Z,71.20
2023-03-23T23:59:09.719Z,71.60
